sensor_id;sensor_type;location;lat;lon;timestamp;P1;durP1;ratioP1;P2;durP2;ratioP2
11121;SDS011;5615;49.304;10.576;2023-06-14T00:01:13;6.43;;;5.83;;
11121;SDS011;5615;49.304;10.576;2023-06-14T00:03:40;5.97;;;5.37;;
11121;SDS011;5615;49.304;10.576;2023-06-14T00:06:06;8.93;;;5.90;;
11121;SDS011;5615;49.304;10.576;2023-06-14T00:08:33;6.50;;;5.80;;
11121;SDS011;5615;49.304;10.576;2023-06-14T00:11:00;6.07;;;5.13;;
11121;SDS011;5615;49.304;10.576;2023-06-14T00:13:26;6.60;;;5.90;;
11121;SDS011;5615;49.304;10.576;2023-06-14T00:15:54;9.17;;;5.60;;
11121;SDS011;5615;49.304;10.576;2023-06-14T00:18:21;8.43;;;5.63;;
11121;SDS011;5615;49.304;10.576;2023-06-14T00:20:49;5.83;;;5.33;;
11121;SDS011;5615;49.304;10.576;2023-06-14T00:23:15;6.40;;;5.37;;
11121;SDS011;5615;49.304;10.576;2023-06-14T00:25:42;6.03;;;5.43;;
11121;SDS011;5615;49.304;10.576;2023-06-14T00:28:09;6.23;;;5.63;;
11121;SDS011;5615;49.304;10.576;2023-06-14T00:30:35;10.10;;;6.33;;
11121;SDS011;5615;49.304;10.576;2023-06-14T00:33:03;5.97;;;5.27;;
11121;SDS011;5615;49.304;10.576;2023-06-14T00:35:30;8.57;;;5.50;;
11121;SDS011;5615;49.304;10.576;2023-06-14T00:37:57;7.00;;;5.93;;
11121;SDS011;5615;49.304;10.576;2023-06-14T00:40:24;6.50;;;5.90;;
11121;SDS011;5615;49.304;10.576;2023-06-14T00:42:51;10.53;;;6.10;;
11121;SDS011;5615;49.304;10.576;2023-06-14T00:45:17;6.47;;;5.80;;
11121;SDS011;5615;49.304;10.576;2023-06-14T00:47:44;8.87;;;5.90;;
11121;SDS011;5615;49.304;10.576;2023-06-14T00:50:14;9.30;;;5.77;;
11121;SDS011;5615;49.304;10.576;2023-06-14T00:52:41;7.87;;;5.60;;
11121;SDS011;5615;49.304;10.576;2023-06-14T00:55:08;6.20;;;5.53;;
11121;SDS011;5615;49.304;10.576;2023-06-14T00:57:35;8.00;;;5.43;;
11121;SDS011;5615;49.304;10.576;2023-06-14T01:00:05;6.83;;;5.73;;
11121;SDS011;5615;49.304;10.576;2023-06-14T01:02:34;6.17;;;5.50;;
11121;SDS011;5615;49.304;10.576;2023-06-14T01:05:01;7.53;;;5.80;;
11121;SDS011;5615;49.304;10.576;2023-06-14T01:07:33;7.87;;;5.53;;
11121;SDS011;5615;49.304;10.576;2023-06-14T01:12:58;7.33;;;6.07;;
11121;SDS011;5615;49.304;10.576;2023-06-14T01:15:31;8.63;;;6.13;;
11121;SDS011;5615;49.304;10.576;2023-06-14T01:17:58;6.60;;;6.00;;
11121;SDS011;5615;49.304;10.576;2023-06-14T01:20:28;9.87;;;6.20;;
11121;SDS011;5615;49.304;10.576;2023-06-14T01:22:57;8.10;;;6.73;;
11121;SDS011;5615;49.304;10.576;2023-06-14T01:25:24;8.80;;;6.70;;
11121;SDS011;5615;49.304;10.576;2023-06-14T01:27:52;7.90;;;6.80;;
11121;SDS011;5615;49.304;10.576;2023-06-14T01:30:21;10.50;;;6.83;;
11121;SDS011;5615;49.304;10.576;2023-06-14T01:32:50;7.87;;;6.60;;
11121;SDS011;5615;49.304;10.576;2023-06-14T01:35:18;7.60;;;6.67;;
11121;SDS011;5615;49.304;10.576;2023-06-14T01:37:45;8.27;;;6.83;;
11121;SDS011;5615;49.304;10.576;2023-06-14T01:40:15;8.03;;;6.63;;
11121;SDS011;5615;49.304;10.576;2023-06-14T01:42:43;7.50;;;6.70;;
11121;SDS011;5615;49.304;10.576;2023-06-14T01:45:12;8.33;;;6.77;;
11121;SDS011;5615;49.304;10.576;2023-06-14T01:47:40;7.30;;;6.60;;
11121;SDS011;5615;49.304;10.576;2023-06-14T01:50:07;8.90;;;6.47;;
11121;SDS011;5615;49.304;10.576;2023-06-14T01:52:34;9.90;;;6.73;;
11121;SDS011;5615;49.304;10.576;2023-06-14T01:55:00;7.40;;;6.70;;
11121;SDS011;5615;49.304;10.576;2023-06-14T01:57:29;7.77;;;6.83;;
11121;SDS011;5615;49.304;10.576;2023-06-14T01:59:56;8.03;;;7.23;;
11121;SDS011;5615;49.304;10.576;2023-06-14T02:02:22;8.37;;;7.03;;
11121;SDS011;5615;49.304;10.576;2023-06-14T02:04:49;7.40;;;6.70;;
11121;SDS011;5615;49.304;10.576;2023-06-14T02:07:15;7.60;;;6.60;;
11121;SDS011;5615;49.304;10.576;2023-06-14T02:09:42;11.17;;;6.70;;
11121;SDS011;5615;49.304;10.576;2023-06-14T02:12:09;9.93;;;6.63;;
11121;SDS011;5615;49.304;10.576;2023-06-14T02:14:38;12.13;;;6.97;;
11121;SDS011;5615;49.304;10.576;2023-06-14T02:17:04;9.30;;;7.07;;
11121;SDS011;5615;49.304;10.576;2023-06-14T02:19:31;8.67;;;6.63;;
11121;SDS011;5615;49.304;10.576;2023-06-14T02:21:58;8.67;;;6.70;;
11121;SDS011;5615;49.304;10.576;2023-06-14T02:24:25;8.23;;;6.77;;
11121;SDS011;5615;49.304;10.576;2023-06-14T02:26:51;8.73;;;6.90;;
11121;SDS011;5615;49.304;10.576;2023-06-14T02:29:18;9.33;;;6.97;;
11121;SDS011;5615;49.304;10.576;2023-06-14T02:31:46;8.17;;;6.73;;
11121;SDS011;5615;49.304;10.576;2023-06-14T02:34:13;7.53;;;6.80;;
11121;SDS011;5615;49.304;10.576;2023-06-14T02:36:41;7.50;;;6.33;;
11121;SDS011;5615;49.304;10.576;2023-06-14T02:39:08;6.93;;;6.23;;
11121;SDS011;5615;49.304;10.576;2023-06-14T02:41:35;8.57;;;7.07;;
11121;SDS011;5615;49.304;10.576;2023-06-14T02:44:02;8.23;;;7.33;;
11121;SDS011;5615;49.304;10.576;2023-06-14T02:46:29;8.93;;;7.13;;
11121;SDS011;5615;49.304;10.576;2023-06-14T02:48:57;9.03;;;6.60;;
11121;SDS011;5615;49.304;10.576;2023-06-14T02:51:23;12.43;;;7.30;;
11121;SDS011;5615;49.304;10.576;2023-06-14T02:53:50;9.20;;;6.87;;
11121;SDS011;5615;49.304;10.576;2023-06-14T02:56:17;10.57;;;7.43;;
11121;SDS011;5615;49.304;10.576;2023-06-14T02:58:44;8.07;;;7.27;;
11121;SDS011;5615;49.304;10.576;2023-06-14T03:01:11;11.37;;;7.67;;
11121;SDS011;5615;49.304;10.576;2023-06-14T03:03:39;9.00;;;7.53;;
11121;SDS011;5615;49.304;10.576;2023-06-14T03:06:06;10.10;;;6.90;;
11121;SDS011;5615;49.304;10.576;2023-06-14T03:08:34;10.33;;;6.83;;
11121;SDS011;5615;49.304;10.576;2023-06-14T03:11:04;9.33;;;7.60;;
11121;SDS011;5615;49.304;10.576;2023-06-14T03:13:31;10.63;;;8.13;;
11121;SDS011;5615;49.304;10.576;2023-06-14T03:15:58;9.07;;;7.93;;
11121;SDS011;5615;49.304;10.576;2023-06-14T03:18:27;10.03;;;7.83;;
11121;SDS011;5615;49.304;10.576;2023-06-14T03:20:55;8.17;;;7.27;;
11121;SDS011;5615;49.304;10.576;2023-06-14T03:23:24;11.60;;;7.60;;
11121;SDS011;5615;49.304;10.576;2023-06-14T03:25:51;10.40;;;7.43;;
11121;SDS011;5615;49.304;10.576;2023-06-14T03:28:17;10.90;;;8.10;;
11121;SDS011;5615;49.304;10.576;2023-06-14T03:30:44;12.13;;;8.50;;
11121;SDS011;5615;49.304;10.576;2023-06-14T03:33:11;9.77;;;7.83;;
11121;SDS011;5615;49.304;10.576;2023-06-14T03:35:38;9.97;;;7.70;;
11121;SDS011;5615;49.304;10.576;2023-06-14T03:38:05;10.53;;;8.07;;
11121;SDS011;5615;49.304;10.576;2023-06-14T03:40:33;10.80;;;8.20;;
11121;SDS011;5615;49.304;10.576;2023-06-14T03:42:59;12.80;;;7.90;;
11121;SDS011;5615;49.304;10.576;2023-06-14T03:45:26;8.60;;;7.67;;
11121;SDS011;5615;49.304;10.576;2023-06-14T03:47:53;11.33;;;8.17;;
11121;SDS011;5615;49.304;10.576;2023-06-14T03:50:19;10.87;;;8.07;;
11121;SDS011;5615;49.304;10.576;2023-06-14T03:52:47;10.13;;;8.57;;
11121;SDS011;5615;49.304;10.576;2023-06-14T03:55:15;10.23;;;7.77;;
11121;SDS011;5615;49.304;10.576;2023-06-14T03:57:43;9.03;;;8.13;;
11121;SDS011;5615;49.304;10.576;2023-06-14T04:00:10;12.23;;;7.93;;
11121;SDS011;5615;49.304;10.576;2023-06-14T04:02:37;8.77;;;7.93;;
11121;SDS011;5615;49.304;10.576;2023-06-14T04:05:05;8.10;;;7.13;;
11121;SDS011;5615;49.304;10.576;2023-06-14T04:07:33;9.03;;;7.17;;
11121;SDS011;5615;49.304;10.576;2023-06-14T04:10:05;10.93;;;8.03;;
11121;SDS011;5615;49.304;10.576;2023-06-14T04:12:32;9.77;;;7.10;;
11121;SDS011;5615;49.304;10.576;2023-06-14T04:15:00;9.60;;;7.10;;
11121;SDS011;5615;49.304;10.576;2023-06-14T04:17:27;8.40;;;7.23;;
11121;SDS011;5615;49.304;10.576;2023-06-14T04:19:54;10.27;;;7.67;;
11121;SDS011;5615;49.304;10.576;2023-06-14T04:22:23;8.87;;;6.77;;
11121;SDS011;5615;49.304;10.576;2023-06-14T04:24:53;7.13;;;6.43;;
11121;SDS011;5615;49.304;10.576;2023-06-14T04:27:21;6.80;;;6.03;;
11121;SDS011;5615;49.304;10.576;2023-06-14T04:29:50;7.33;;;6.53;;
11121;SDS011;5615;49.304;10.576;2023-06-14T04:32:23;8.33;;;6.90;;
11121;SDS011;5615;49.304;10.576;2023-06-14T04:34:50;8.17;;;6.53;;
11121;SDS011;5615;49.304;10.576;2023-06-14T04:37:18;7.53;;;6.73;;
11121;SDS011;5615;49.304;10.576;2023-06-14T04:39:46;11.67;;;6.90;;
11121;SDS011;5615;49.304;10.576;2023-06-14T04:42:12;7.47;;;6.57;;
11121;SDS011;5615;49.304;10.576;2023-06-14T04:44:41;7.90;;;7.03;;
11121;SDS011;5615;49.304;10.576;2023-06-14T04:47:08;8.37;;;6.47;;
11121;SDS011;5615;49.304;10.576;2023-06-14T04:49:37;9.03;;;6.77;;
11121;SDS011;5615;49.304;10.576;2023-06-14T04:52:05;10.37;;;6.40;;
11121;SDS011;5615;49.304;10.576;2023-06-14T04:54:32;7.57;;;6.80;;
11121;SDS011;5615;49.304;10.576;2023-06-14T04:57:02;10.77;;;6.73;;
11121;SDS011;5615;49.304;10.576;2023-06-14T04:59:29;10.60;;;6.77;;
11121;SDS011;5615;49.304;10.576;2023-06-14T05:01:58;10.10;;;7.17;;
11121;SDS011;5615;49.304;10.576;2023-06-14T05:04:25;7.47;;;6.77;;
11121;SDS011;5615;49.304;10.576;2023-06-14T05:06:53;9.73;;;6.60;;
11121;SDS011;5615;49.304;10.576;2023-06-14T05:09:20;7.43;;;5.90;;
11121;SDS011;5615;49.304;10.576;2023-06-14T05:11:47;10.43;;;7.30;;
11121;SDS011;5615;49.304;10.576;2023-06-14T05:14:13;7.60;;;6.80;;
11121;SDS011;5615;49.304;10.576;2023-06-14T05:16:40;8.53;;;6.27;;
11121;SDS011;5615;49.304;10.576;2023-06-14T05:19:08;7.53;;;6.50;;
11121;SDS011;5615;49.304;10.576;2023-06-14T05:21:35;8.07;;;6.73;;
11121;SDS011;5615;49.304;10.576;2023-06-14T05:24:03;7.10;;;6.40;;
11121;SDS011;5615;49.304;10.576;2023-06-14T05:26:30;7.57;;;6.87;;
11121;SDS011;5615;49.304;10.576;2023-06-14T05:28:58;6.43;;;5.80;;
11121;SDS011;5615;49.304;10.576;2023-06-14T05:31:26;6.73;;;6.03;;
11121;SDS011;5615;49.304;10.576;2023-06-14T05:33:53;9.27;;;6.47;;
11121;SDS011;5615;49.304;10.576;2023-06-14T05:36:20;7.83;;;5.97;;
11121;SDS011;5615;49.304;10.576;2023-06-14T05:38:47;6.73;;;6.07;;
11121;SDS011;5615;49.304;10.576;2023-06-14T05:41:15;6.57;;;5.97;;
11121;SDS011;5615;49.304;10.576;2023-06-14T05:43:42;9.53;;;6.53;;
11121;SDS011;5615;49.304;10.576;2023-06-14T05:46:08;7.47;;;6.13;;
11121;SDS011;5615;49.304;10.576;2023-06-14T05:48:35;7.53;;;6.33;;
11121;SDS011;5615;49.304;10.576;2023-06-14T05:51:02;10.10;;;6.87;;
11121;SDS011;5615;49.304;10.576;2023-06-14T05:53:29;7.20;;;6.40;;
11121;SDS011;5615;49.304;10.576;2023-06-14T05:55:55;8.20;;;6.17;;
11121;SDS011;5615;49.304;10.576;2023-06-14T05:58:23;10.27;;;6.60;;
11121;SDS011;5615;49.304;10.576;2023-06-14T06:00:50;8.35;;;6.32;;
11121;SDS011;5615;49.304;10.576;2023-06-14T06:03:18;6.33;;;5.73;;
11121;SDS011;5615;49.304;10.576;2023-06-14T06:05:46;8.02;;;6.15;;
11121;SDS011;5615;49.304;10.576;2023-06-14T06:08:12;10.00;;;6.23;;
11121;SDS011;5615;49.304;10.576;2023-06-14T06:10:39;6.10;;;5.60;;
11121;SDS011;5615;49.304;10.576;2023-06-14T06:13:06;6.75;;;6.05;;
11121;SDS011;5615;49.304;10.576;2023-06-14T06:15:35;7.60;;;5.95;;
11121;SDS011;5615;49.304;10.576;2023-06-14T06:18:02;7.13;;;6.43;;
11121;SDS011;5615;49.304;10.576;2023-06-14T06:20:29;9.85;;;6.38;;
11121;SDS011;5615;49.304;10.576;2023-06-14T06:22:56;8.23;;;5.93;;
11121;SDS011;5615;49.304;10.576;2023-06-14T06:25:23;6.72;;;6.05;;
11121;SDS011;5615;49.304;10.576;2023-06-14T06:27:50;8.63;;;6.75;;
11121;SDS011;5615;49.304;10.576;2023-06-14T06:30:17;8.20;;;5.93;;
11121;SDS011;5615;49.304;10.576;2023-06-14T06:32:45;8.82;;;5.88;;
11121;SDS011;5615;49.304;10.576;2023-06-14T06:35:12;10.77;;;6.45;;
11121;SDS011;5615;49.304;10.576;2023-06-14T06:37:39;7.37;;;6.53;;
11121;SDS011;5615;49.304;10.576;2023-06-14T06:40:06;7.30;;;6.28;;
11121;SDS011;5615;49.304;10.576;2023-06-14T06:42:34;6.80;;;6.05;;
11121;SDS011;5615;49.304;10.576;2023-06-14T06:45:01;6.72;;;6.13;;
11121;SDS011;5615;49.304;10.576;2023-06-14T06:47:28;8.23;;;5.68;;
11121;SDS011;5615;49.304;10.576;2023-06-14T06:49:56;6.78;;;6.18;;
11121;SDS011;5615;49.304;10.576;2023-06-14T06:52:22;9.40;;;6.72;;
11121;SDS011;5615;49.304;10.576;2023-06-14T06:54:49;6.78;;;6.07;;
11121;SDS011;5615;49.304;10.576;2023-06-14T06:57:19;8.18;;;6.25;;
11121;SDS011;5615;49.304;10.576;2023-06-14T06:59:47;8.02;;;6.25;;
11121;SDS011;5615;49.304;10.576;2023-06-14T07:02:14;7.68;;;6.45;;
11121;SDS011;5615;49.304;10.576;2023-06-14T07:04:41;6.35;;;5.75;;
11121;SDS011;5615;49.304;10.576;2023-06-14T07:07:09;7.65;;;6.05;;
11121;SDS011;5615;49.304;10.576;2023-06-14T07:09:35;6.82;;;5.88;;
11121;SDS011;5615;49.304;10.576;2023-06-14T07:12:02;8.23;;;6.47;;
11121;SDS011;5615;49.304;10.576;2023-06-14T07:14:29;9.30;;;6.20;;
11121;SDS011;5615;49.304;10.576;2023-06-14T07:16:56;8.25;;;6.40;;
11121;SDS011;5615;49.304;10.576;2023-06-14T07:19:23;7.95;;;6.60;;
11121;SDS011;5615;49.304;10.576;2023-06-14T07:21:49;9.40;;;6.32;;
11121;SDS011;5615;49.304;10.576;2023-06-14T07:24:17;6.95;;;6.10;;
11121;SDS011;5615;49.304;10.576;2023-06-14T07:26:46;11.57;;;5.70;;
11121;SDS011;5615;49.304;10.576;2023-06-14T07:29:13;6.93;;;6.22;;
11121;SDS011;5615;49.304;10.576;2023-06-14T07:31:41;10.38;;;6.32;;
11121;SDS011;5615;49.304;10.576;2023-06-14T07:34:08;7.82;;;6.20;;
11121;SDS011;5615;49.304;10.576;2023-06-14T07:36:34;11.77;;;6.25;;
11121;SDS011;5615;49.304;10.576;2023-06-14T07:39:01;6.00;;;5.40;;
11121;SDS011;5615;49.304;10.576;2023-06-14T07:41:30;8.27;;;5.18;;
11121;SDS011;5615;49.304;10.576;2023-06-14T07:43:57;7.00;;;5.68;;
11121;SDS011;5615;49.304;10.576;2023-06-14T07:46:24;6.78;;;5.72;;
11121;SDS011;5615;49.304;10.576;2023-06-14T07:48:50;6.00;;;5.40;;
11121;SDS011;5615;49.304;10.576;2023-06-14T07:51:17;8.57;;;5.20;;
11121;SDS011;5615;49.304;10.576;2023-06-14T07:53:43;8.30;;;5.45;;
11121;SDS011;5615;49.304;10.576;2023-06-14T07:56:11;10.45;;;5.40;;
11121;SDS011;5615;49.304;10.576;2023-06-14T07:58:39;7.15;;;5.32;;
11121;SDS011;5615;49.304;10.576;2023-06-14T08:01:05;7.13;;;5.70;;
11121;SDS011;5615;49.304;10.576;2023-06-14T08:03:33;6.50;;;5.70;;
11121;SDS011;5615;49.304;10.576;2023-06-14T08:06:00;6.82;;;5.32;;
11121;SDS011;5615;49.304;10.576;2023-06-14T08:08:29;8.45;;;5.35;;
11121;SDS011;5615;49.304;10.576;2023-06-14T08:10:55;6.50;;;4.90;;
11121;SDS011;5615;49.304;10.576;2023-06-14T08:13:22;6.70;;;4.80;;
11121;SDS011;5615;49.304;10.576;2023-06-14T08:15:50;5.35;;;4.85;;
11121;SDS011;5615;49.304;10.576;2023-06-14T08:18:17;5.63;;;5.13;;
11121;SDS011;5615;49.304;10.576;2023-06-14T08:20:43;9.50;;;5.30;;
11121;SDS011;5615;49.304;10.576;2023-06-14T08:23:10;6.65;;;5.60;;
11121;SDS011;5615;49.304;10.576;2023-06-14T08:25:37;6.85;;;5.00;;
11121;SDS011;5615;49.304;10.576;2023-06-14T08:28:03;7.38;;;5.13;;
11121;SDS011;5615;49.304;10.576;2023-06-14T08:30:31;8.63;;;4.80;;
11121;SDS011;5615;49.304;10.576;2023-06-14T08:32:59;5.68;;;4.95;;
11121;SDS011;5615;49.304;10.576;2023-06-14T08:35:26;5.45;;;4.85;;
11121;SDS011;5615;49.304;10.576;2023-06-14T08:37:52;5.13;;;4.63;;
11121;SDS011;5615;49.304;10.576;2023-06-14T08:40:20;6.88;;;4.97;;
11121;SDS011;5615;49.304;10.576;2023-06-14T08:42:50;6.60;;;5.32;;
11121;SDS011;5615;49.304;10.576;2023-06-14T08:45:17;6.50;;;4.55;;
11121;SDS011;5615;49.304;10.576;2023-06-14T08:47:45;8.00;;;4.47;;
11121;SDS011;5615;49.304;10.576;2023-06-14T08:50:18;5.30;;;4.80;;
11121;SDS011;5615;49.304;10.576;2023-06-14T08:52:47;6.43;;;4.45;;
11121;SDS011;5615;49.304;10.576;2023-06-14T08:55:17;5.38;;;4.88;;
11121;SDS011;5615;49.304;10.576;2023-06-14T08:57:46;6.32;;;4.70;;
11121;SDS011;5615;49.304;10.576;2023-06-14T09:00:14;5.68;;;4.43;;
11121;SDS011;5615;49.304;10.576;2023-06-14T09:02:42;7.32;;;4.55;;
11121;SDS011;5615;49.304;10.576;2023-06-14T09:05:09;7.93;;;4.10;;
11121;SDS011;5615;49.304;10.576;2023-06-14T09:07:39;6.88;;;4.25;;
11121;SDS011;5615;49.304;10.576;2023-06-14T09:10:07;8.30;;;5.00;;
11121;SDS011;5615;49.304;10.576;2023-06-14T09:12:35;9.75;;;4.63;;
11121;SDS011;5615;49.304;10.576;2023-06-14T09:15:02;5.07;;;4.53;;
11121;SDS011;5615;49.304;10.576;2023-06-14T09:17:32;8.90;;;5.10;;
11121;SDS011;5615;49.304;10.576;2023-06-14T09:19:59;7.50;;;4.43;;
11121;SDS011;5615;49.304;10.576;2023-06-14T09:22:29;7.15;;;4.82;;
11121;SDS011;5615;49.304;10.576;2023-06-14T09:24:57;6.40;;;5.05;;
11121;SDS011;5615;49.304;10.576;2023-06-14T09:27:24;5.05;;;4.47;;
11121;SDS011;5615;49.304;10.576;2023-06-14T09:29:51;8.77;;;4.88;;
11121;SDS011;5615;49.304;10.576;2023-06-14T09:32:18;6.93;;;4.60;;
11121;SDS011;5615;49.304;10.576;2023-06-14T09:34:45;8.85;;;4.22;;
11121;SDS011;5615;49.304;10.576;2023-06-14T09:37:11;6.15;;;4.10;;
11121;SDS011;5615;49.304;10.576;2023-06-14T09:39:48;4.57;;;4.15;;
11121;SDS011;5615;49.304;10.576;2023-06-14T09:42:17;5.60;;;4.63;;
11121;SDS011;5615;49.304;10.576;2023-06-14T09:44:45;6.88;;;4.18;;
11121;SDS011;5615;49.304;10.576;2023-06-14T09:47:14;8.98;;;4.75;;
11121;SDS011;5615;49.304;10.576;2023-06-14T09:49:41;8.23;;;4.43;;
11121;SDS011;5615;49.304;10.576;2023-06-14T09:52:08;5.65;;;4.28;;
11121;SDS011;5615;49.304;10.576;2023-06-14T09:54:39;7.97;;;4.45;;
11121;SDS011;5615;49.304;10.576;2023-06-14T09:57:08;7.03;;;4.60;;
11121;SDS011;5615;49.304;10.576;2023-06-14T09:59:37;6.43;;;4.18;;
11121;SDS011;5615;49.304;10.576;2023-06-14T10:02:09;5.88;;;4.30;;
11121;SDS011;5615;49.304;10.576;2023-06-14T10:04:39;6.93;;;4.03;;
11121;SDS011;5615;49.304;10.576;2023-06-14T10:07:12;6.65;;;4.65;;
11121;SDS011;5615;49.304;10.576;2023-06-14T10:09:42;7.22;;;4.28;;
11121;SDS011;5615;49.304;10.576;2023-06-14T10:12:14;7.00;;;4.15;;
11121;SDS011;5615;49.304;10.576;2023-06-14T10:14:47;4.25;;;3.83;;
11121;SDS011;5615;49.304;10.576;2023-06-14T10:17:17;4.32;;;3.92;;
11121;SDS011;5615;49.304;10.576;2023-06-14T10:19:53;5.00;;;4.50;;
11121;SDS011;5615;49.304;10.576;2023-06-14T10:22:23;7.45;;;4.30;;
11121;SDS011;5615;49.304;10.576;2023-06-14T10:24:58;5.43;;;3.90;;
11121;SDS011;5615;49.304;10.576;2023-06-14T10:27:26;9.20;;;4.30;;
11121;SDS011;5615;49.304;10.576;2023-06-14T10:30:03;5.22;;;4.00;;
11121;SDS011;5615;49.304;10.576;2023-06-14T10:32:33;6.40;;;4.18;;
11121;SDS011;5615;49.304;10.576;2023-06-14T10:35:00;6.25;;;4.30;;
11121;SDS011;5615;49.304;10.576;2023-06-14T10:37:30;6.00;;;4.25;;
11121;SDS011;5615;49.304;10.576;2023-06-14T10:39:56;6.57;;;4.68;;
11121;SDS011;5615;49.304;10.576;2023-06-14T10:42:23;5.15;;;4.40;;
11121;SDS011;5615;49.304;10.576;2023-06-14T10:44:54;6.00;;;4.40;;
11121;SDS011;5615;49.304;10.576;2023-06-14T10:47:23;6.63;;;4.28;;
11121;SDS011;5615;49.304;10.576;2023-06-14T10:49:55;5.80;;;4.18;;
11121;SDS011;5615;49.304;10.576;2023-06-14T10:52:24;5.32;;;4.72;;
11121;SDS011;5615;49.304;10.576;2023-06-14T10:54:59;5.07;;;4.30;;
11121;SDS011;5615;49.304;10.576;2023-06-14T10:57:38;5.60;;;4.57;;
11121;SDS011;5615;49.304;10.576;2023-06-14T11:00:05;6.32;;;4.50;;
11121;SDS011;5615;49.304;10.576;2023-06-14T11:02:52;6.45;;;4.70;;
11121;SDS011;5615;49.304;10.576;2023-06-14T11:05:42;7.97;;;4.18;;
11121;SDS011;5615;49.304;10.576;2023-06-14T11:08:25;5.03;;;4.20;;
11121;SDS011;5615;49.304;10.576;2023-06-14T11:11:05;5.07;;;4.15;;
11121;SDS011;5615;49.304;10.576;2023-06-14T11:13:32;6.03;;;4.18;;
11121;SDS011;5615;49.304;10.576;2023-06-14T11:15:59;7.05;;;4.05;;
11121;SDS011;5615;49.304;10.576;2023-06-14T11:18:27;6.43;;;4.72;;
11121;SDS011;5615;49.304;10.576;2023-06-14T11:20:54;5.43;;;4.30;;
11121;SDS011;5615;49.304;10.576;2023-06-14T11:23:21;5.78;;;4.72;;
11121;SDS011;5615;49.304;10.576;2023-06-14T11:25:49;4.75;;;4.18;;
11121;SDS011;5615;49.304;10.576;2023-06-14T11:28:17;7.40;;;4.07;;
11121;SDS011;5615;49.304;10.576;2023-06-14T11:30:44;4.55;;;4.13;;
11121;SDS011;5615;49.304;10.576;2023-06-14T11:33:11;6.85;;;4.18;;
11121;SDS011;5615;49.304;10.576;2023-06-14T11:35:43;6.70;;;4.13;;
11121;SDS011;5615;49.304;10.576;2023-06-14T11:38:10;5.50;;;4.22;;
11121;SDS011;5615;49.304;10.576;2023-06-14T11:40:38;4.65;;;4.13;;
11121;SDS011;5615;49.304;10.576;2023-06-14T11:43:04;5.78;;;4.43;;
11121;SDS011;5615;49.304;10.576;2023-06-14T11:45:31;5.95;;;4.43;;
11121;SDS011;5615;49.304;10.576;2023-06-14T11:47:58;7.72;;;4.50;;
11121;SDS011;5615;49.304;10.576;2023-06-14T11:50:25;5.70;;;4.28;;
11121;SDS011;5615;49.304;10.576;2023-06-14T11:52:54;4.88;;;4.10;;
11121;SDS011;5615;49.304;10.576;2023-06-14T11:55:22;6.85;;;4.43;;
11121;SDS011;5615;49.304;10.576;2023-06-14T11:57:49;5.25;;;4.38;;
11121;SDS011;5615;49.304;10.576;2023-06-14T12:00:16;7.80;;;4.07;;
11121;SDS011;5615;49.304;10.576;2023-06-14T12:02:51;6.10;;;4.47;;
11121;SDS011;5615;49.304;10.576;2023-06-14T12:05:20;4.93;;;4.53;;
11121;SDS011;5615;49.304;10.576;2023-06-14T12:07:47;11.43;;;4.63;;
11121;SDS011;5615;49.304;10.576;2023-06-14T12:10:16;6.70;;;4.28;;
11121;SDS011;5615;49.304;10.576;2023-06-14T12:12:43;5.00;;;4.18;;
11121;SDS011;5615;49.304;10.576;2023-06-14T12:15:09;6.45;;;4.28;;
11121;SDS011;5615;49.304;10.576;2023-06-14T12:17:37;5.38;;;4.32;;
11121;SDS011;5615;49.304;10.576;2023-06-14T12:20:07;5.70;;;4.15;;
11121;SDS011;5615;49.304;10.576;2023-06-14T12:22:38;5.40;;;3.88;;
11121;SDS011;5615;49.304;10.576;2023-06-14T12:25:06;4.60;;;3.92;;
11121;SDS011;5615;49.304;10.576;2023-06-14T12:27:36;6.25;;;4.28;;
11121;SDS011;5615;49.304;10.576;2023-06-14T12:30:06;6.82;;;4.00;;
11121;SDS011;5615;49.304;10.576;2023-06-14T12:32:34;8.30;;;4.30;;
11121;SDS011;5615;49.304;10.576;2023-06-14T12:35:00;5.20;;;4.20;;
11121;SDS011;5615;49.304;10.576;2023-06-14T12:37:28;5.30;;;4.30;;
11121;SDS011;5615;49.304;10.576;2023-06-14T12:39:54;4.93;;;4.05;;
11121;SDS011;5615;49.304;10.576;2023-06-14T12:42:21;5.65;;;3.90;;
11121;SDS011;5615;49.304;10.576;2023-06-14T12:44:49;6.13;;;3.90;;
11121;SDS011;5615;49.304;10.576;2023-06-14T12:47:15;5.40;;;4.22;;
11121;SDS011;5615;49.304;10.576;2023-06-14T12:49:42;5.38;;;4.07;;
11121;SDS011;5615;49.304;10.576;2023-06-14T12:52:09;6.60;;;4.38;;
11121;SDS011;5615;49.304;10.576;2023-06-14T12:54:36;4.75;;;4.20;;
11121;SDS011;5615;49.304;10.576;2023-06-14T12:57:04;5.80;;;4.38;;
11121;SDS011;5615;49.304;10.576;2023-06-14T12:59:31;6.25;;;4.53;;
11121;SDS011;5615;49.304;10.576;2023-06-14T13:02:01;4.85;;;4.35;;
11121;SDS011;5615;49.304;10.576;2023-06-14T13:04:37;5.70;;;3.95;;
11121;SDS011;5615;49.304;10.576;2023-06-14T13:07:03;4.75;;;3.97;;
11121;SDS011;5615;49.304;10.576;2023-06-14T13:09:31;4.32;;;3.92;;
11121;SDS011;5615;49.304;10.576;2023-06-14T13:11:57;5.72;;;4.20;;
11121;SDS011;5615;49.304;10.576;2023-06-14T13:14:24;5.03;;;4.00;;
11121;SDS011;5615;49.304;10.576;2023-06-14T13:16:51;4.82;;;4.03;;
11121;SDS011;5615;49.304;10.576;2023-06-14T13:19:19;4.28;;;3.90;;
11121;SDS011;5615;49.304;10.576;2023-06-14T13:21:45;4.35;;;3.95;;
11121;SDS011;5615;49.304;10.576;2023-06-14T13:24:12;4.70;;;3.97;;
11121;SDS011;5615;49.304;10.576;2023-06-14T13:26:38;4.75;;;4.28;;
11121;SDS011;5615;49.304;10.576;2023-06-14T13:29:05;5.00;;;4.50;;
11121;SDS011;5615;49.304;10.576;2023-06-14T13:31:32;4.65;;;4.20;;
11121;SDS011;5615;49.304;10.576;2023-06-14T13:33:58;5.13;;;4.20;;
11121;SDS011;5615;49.304;10.576;2023-06-14T13:36:26;8.02;;;3.92;;
11121;SDS011;5615;49.304;10.576;2023-06-14T13:38:53;5.22;;;4.50;;
11121;SDS011;5615;49.304;10.576;2023-06-14T13:41:20;6.15;;;4.05;;
11121;SDS011;5615;49.304;10.576;2023-06-14T13:43:46;5.38;;;4.30;;
11121;SDS011;5615;49.304;10.576;2023-06-14T13:46:13;6.45;;;3.53;;
11121;SDS011;5615;49.304;10.576;2023-06-14T13:48:40;4.38;;;3.88;;
11121;SDS011;5615;49.304;10.576;2023-06-14T13:51:07;4.32;;;3.65;;
11121;SDS011;5615;49.304;10.576;2023-06-14T13:53:35;7.82;;;3.72;;
11121;SDS011;5615;49.304;10.576;2023-06-14T13:56:01;5.53;;;3.80;;
11121;SDS011;5615;49.304;10.576;2023-06-14T13:58:28;6.25;;;3.90;;
11121;SDS011;5615;49.304;10.576;2023-06-14T14:00:55;4.30;;;3.90;;
11121;SDS011;5615;49.304;10.576;2023-06-14T14:03:21;5.78;;;3.90;;
11121;SDS011;5615;49.304;10.576;2023-06-14T14:05:49;4.22;;;3.83;;
11121;SDS011;5615;49.304;10.576;2023-06-14T14:08:15;5.95;;;3.92;;
11121;SDS011;5615;49.304;10.576;2023-06-14T14:10:43;5.63;;;3.70;;
11121;SDS011;5615;49.304;10.576;2023-06-14T14:13:10;4.82;;;4.38;;
11121;SDS011;5615;49.304;10.576;2023-06-14T14:15:37;4.18;;;3.78;;
11121;SDS011;5615;49.304;10.576;2023-06-14T14:18:04;4.70;;;3.72;;
11121;SDS011;5615;49.304;10.576;2023-06-14T14:20:31;4.60;;;3.60;;
11121;SDS011;5615;49.304;10.576;2023-06-14T14:22:58;7.03;;;3.92;;
11121;SDS011;5615;49.304;10.576;2023-06-14T14:25:24;4.43;;;3.33;;
11121;SDS011;5615;49.304;10.576;2023-06-14T14:27:52;6.70;;;3.80;;
11121;SDS011;5615;49.304;10.576;2023-06-14T14:30:19;4.43;;;3.55;;
11121;SDS011;5615;49.304;10.576;2023-06-14T14:32:48;8.20;;;4.00;;
11121;SDS011;5615;49.304;10.576;2023-06-14T14:35:16;5.55;;;3.70;;
11121;SDS011;5615;49.304;10.576;2023-06-14T14:37:42;3.63;;;3.33;;
11121;SDS011;5615;49.304;10.576;2023-06-14T14:40:09;4.05;;;3.55;;
11121;SDS011;5615;49.304;10.576;2023-06-14T14:42:37;4.80;;;3.45;;
11121;SDS011;5615;49.304;10.576;2023-06-14T14:45:06;4.50;;;3.67;;
11121;SDS011;5615;49.304;10.576;2023-06-14T14:47:33;4.38;;;3.90;;
11121;SDS011;5615;49.304;10.576;2023-06-14T14:49:59;6.75;;;3.90;;
11121;SDS011;5615;49.304;10.576;2023-06-14T14:52:26;6.22;;;3.80;;